Terminal Aerodrome Forecast
Issued by NWS

Home | Current Version | Previous Version | Text Only | Print | Product List | Glossary On
Versions: 1 2 3 4 5 6 7 8 9 10 11 12 13 14 15 16 17 18
584
FTUS43 KMPX 142028 AAA
TAFAXN
TAF AMD
KAXN 142028Z 1420/1518 17013KT 3SM -SN BKN016 OVC022
      TEMPO 1421/1423 5SM HZ SCT016 OVC022
     FM142300 17010KT 5SM BR BKN014 OVC020
     FM150700 24005KT 2SM BR OVC008=

USA.gov is the U.S. government's official web portal to all federal, state and local government web resources and services.